Aérodrome :
LOGIN :

S'inscrire | Disclaimer

   EN    FR    IT 

 










Légende :    VFR   VFR Marginal   IFR   IFR Intensif   IFR Très Intensif
Visi : 
Plafond : 
>= 8 km
>= 3000ft
5 à 8 km
1000 à 3000 ft
1500m à 5 km
500 à 1000 ft
800 à 1500m
200 à 500 ft
< 800m
< 200 ft
Symboles :   Orages  Brouillard  Fortes neiges  Fortes précipitations  Vent > 20 kt
SIGMETs :   Divers  Orages  Givrage  Turbulence  Onde Orograph.  Cendres Volcan.






- Altitude de l'aérodrome : 512 ft
- Code IATA : URO


LFOP - Rouen Vallée de Seine

DERNIER METAR :
  • 102030Z AUTO 18015KT 9999 OVC016 08/06 Q1014 TEMPO 18020G30KT 3000 RA OVC010

METARs EXPIRÉS :
  • 102000Z AUTO 18016KT 9999 OVC016 08/06 Q1014 TEMPO 18020G30KT 3000 RA OVC010
  • 101930Z AUTO 19016KT 9999 BKN016 OVC028 08/06 Q1015 TEMPO 18020G30KT 3000 RA OVC010
  • 101900Z AUTO 19016KT 9999 BKN016 BKN026 OVC040 08/05 Q1015 TEMPO 18020G30KT 3000 RA OVC010
  • 101830Z AUTO 19015KT 9999 BKN016 OVC036 08/05 Q1015 TEMPO 18020G30KT 3000 RA OVC010
  • 101800Z AUTO 18011KT 9999 OVC016 07/05 Q1016 TEMPO 18020G30KT 3000 RA OVC010

TAF TAF LFOP
Valide du 10 à 18h jusqu'au 11 à 18h UTC


101700Z 1018/1118 18015G25KT 9999 OVC017
TEMPO 1018/1101 18020G30KT 3000 RA OVC010
BECMG 1100/1103 22013KT
TEMPO 1106/1111 OVC010
ATIS : +33 2 35 80 80 34
Météo : +33 2 32 86 52 80



MET'MAP, la Météo Aéronautique d'un coup d'oeil ! - Copyright ORBIFLY Décembre 2007 - Disclaimer

ORBIFLY MET'MAP TEAM :

Programmation & Développement : Alexandra Zaïnal
Sur une idée originale de : Baudouin d'Aumeries
Assistance à la programmation : Marc-Olivier Méhu
Soutien technique & logistique : Manuel Goepfert

Contact : metmap@orbifly.com




SOURCES & CREDITS :

   NOAA